createdAt,value
2023-03-20T00:00:38.654Z,15.92
2023-03-20T00:03:27.973Z,15.93
2023-03-20T00:05:56.751Z,15.93
2023-03-20T00:08:29.744Z,15.96
2023-03-20T00:10:58.560Z,15.93
2023-03-20T00:13:29.420Z,15.94
2023-03-20T00:15:58.482Z,15.86
2023-03-20T00:18:29.277Z,15.90
2023-03-20T00:20:57.814Z,15.87
2023-03-20T00:23:25.787Z,15.86
2023-03-20T00:25:57.453Z,15.86
2023-03-20T00:28:44.029Z,15.89
2023-03-20T00:31:35.418Z,15.84
2023-03-20T00:34:19.487Z,15.88
2023-03-20T00:36:48.915Z,15.87
2023-03-20T00:39:18.319Z,15.92
2023-03-20T00:41:58.254Z,15.96
2023-03-20T00:44:45.175Z,15.94
2023-03-20T00:47:20.944Z,15.94
2023-03-20T00:49:52.349Z,15.94
2023-03-20T00:52:22.192Z,15.86
2023-03-20T00:54:53.926Z,15.92
2023-03-20T00:57:34.928Z,15.95
2023-03-20T01:00:09.233Z,15.92
2023-03-20T01:02:37.598Z,15.91
2023-03-20T01:05:08.087Z,15.90
2023-03-20T01:07:36.865Z,15.90
2023-03-20T01:10:05.976Z,15.87
2023-03-20T01:12:33.990Z,15.87
2023-03-20T01:15:02.133Z,15.88
2023-03-20T01:17:32.367Z,15.88
2023-03-20T01:20:00.728Z,15.88
2023-03-20T01:22:28.964Z,15.83
2023-03-20T01:24:57.242Z,15.84
2023-03-20T01:27:25.679Z,15.78
2023-03-20T01:29:54.276Z,15.80
2023-03-20T01:32:23.246Z,15.74
2023-03-20T01:34:53.410Z,15.76
2023-03-20T01:37:27.981Z,15.76
2023-03-20T01:40:02.967Z,15.74
2023-03-20T01:42:37.360Z,15.72
2023-03-20T01:45:24.132Z,15.74
2023-03-20T01:47:52.867Z,15.69
2023-03-20T01:50:30.168Z,15.71
2023-03-20T01:53:25.785Z,15.70
2023-03-20T01:56:01.516Z,15.66
2023-03-20T01:58:44.795Z,15.69
2023-03-20T02:01:16.064Z,15.60
2023-03-20T02:03:50.509Z,15.69
2023-03-20T02:06:47.500Z,15.63
2023-03-20T02:09:19.348Z,15.64
2023-03-20T02:11:49.032Z,15.60
2023-03-20T02:14:21.744Z,15.60
2023-03-20T02:17:08.986Z,15.53
2023-03-20T02:20:15.210Z,15.58
2023-03-20T02:23:29.805Z,15.57
2023-03-20T02:26:50.916Z,15.52
2023-03-20T02:30:06.946Z,15.49
2023-03-20T02:33:14.376Z,15.45
2023-03-20T02:36:09.205Z,15.47
2023-03-20T02:39:15.799Z,15.50
2023-03-20T02:42:11.967Z,15.48
2023-03-20T02:45:04.536Z,15.51
2023-03-20T02:48:08.458Z,15.48
2023-03-20T02:50:58.815Z,15.51
2023-03-20T02:54:15.386Z,15.51
2023-03-20T02:56:58.383Z,15.49
2023-03-20T02:59:59.563Z,15.48
2023-03-20T03:03:06.540Z,15.45
2023-03-20T03:06:15.160Z,15.45
2023-03-20T03:08:49.409Z,15.45
2023-03-20T03:11:17.610Z,15.46
2023-03-20T03:13:54.418Z,15.51
2023-03-20T03:16:36.940Z,15.48
2023-03-20T03:19:23.346Z,15.51
2023-03-20T03:21:51.795Z,15.46
2023-03-20T03:24:40.902Z,15.48
2023-03-20T03:27:23.520Z,15.45
2023-03-20T03:29:59.777Z,15.43
2023-03-20T03:32:39.980Z,15.41
2023-03-20T03:35:16.348Z,15.43
2023-03-20T03:37:54.645Z,15.42
2023-03-20T03:40:44.649Z,15.40
2023-03-20T03:43:56.861Z,15.33
2023-03-20T03:46:52.508Z,15.30
2023-03-20T03:49:35.849Z,15.32
2023-03-20T03:52:10.462Z,15.31
2023-03-20T03:55:11.493Z,15.30
2023-03-20T03:58:21.541Z,15.27
2023-03-20T04:00:53.095Z,15.24
2023-03-20T04:03:40.501Z,15.26
2023-03-20T04:06:12.925Z,15.25
2023-03-20T04:08:41.941Z,15.22
2023-03-20T04:11:20.836Z,15.23
2023-03-20T04:13:51.931Z,15.18
2023-03-20T04:16:22.363Z,15.06
2023-03-20T04:18:51.437Z,15.03
2023-03-20T04:21:19.932Z,15.04
2023-03-20T04:23:47.748Z,14.99
2023-03-20T04:26:15.804Z,15.02
2023-03-20T04:28:43.746Z,15.05
2023-03-20T04:31:39.594Z,14.99
2023-03-20T04:34:30.497Z,14.97
2023-03-20T04:37:05.479Z,15.02
2023-03-20T04:39:46.519Z,15.04
2023-03-20T04:42:15.680Z,15.08
2023-03-20T04:44:43.464Z,15.11
2023-03-20T04:47:11.302Z,15.12
2023-03-20T04:49:42.932Z,15.13
2023-03-20T04:52:10.966Z,15.16
2023-03-20T04:54:43.565Z,15.18
2023-03-20T04:57:12.372Z,15.18
2023-03-20T04:59:40.696Z,15.13
2023-03-20T05:02:09.042Z,15.16
2023-03-20T05:04:39.913Z,15.16
2023-03-20T05:07:07.957Z,15.08
2023-03-20T05:09:44.130Z,15.09
2023-03-20T05:12:11.975Z,15.04
2023-03-20T05:14:54.812Z,14.85
2023-03-20T05:17:41.054Z,14.96
2023-03-20T05:20:27.581Z,14.98
2023-03-20T05:23:33.640Z,14.96
2023-03-20T05:26:27.434Z,14.99
2023-03-20T05:29:24.454Z,14.98
2023-03-20T05:32:15.774Z,14.95
2023-03-20T05:35:10.453Z,14.91
2023-03-20T05:37:54.795Z,14.99
2023-03-20T05:40:58.503Z,15.00
2023-03-20T05:43:43.537Z,14.95
2023-03-20T05:46:30.347Z,15.00
2023-03-20T05:49:09.589Z,15.05
2023-03-20T05:52:03.691Z,15.08
2023-03-20T05:54:39.638Z,15.09
2023-03-20T05:57:19.324Z,15.10
2023-03-20T05:59:55.270Z,15.11
2023-03-20T06:02:47.135Z,15.12
2023-03-20T06:05:35.905Z,15.16
2023-03-20T06:08:05.581Z,15.20
2023-03-20T06:10:33.688Z,15.25
2023-03-20T06:13:01.590Z,15.26
2023-03-20T06:15:30.661Z,15.29
2023-03-20T06:18:07.637Z,15.31
2023-03-20T06:20:35.628Z,15.39
2023-03-20T06:23:06.150Z,15.41
2023-03-20T06:25:34.249Z,15.49
2023-03-20T06:28:02.672Z,15.52
2023-03-20T06:30:33.511Z,15.53
2023-03-20T06:33:01.745Z,15.55
2023-03-20T06:35:38.561Z,15.53
2023-03-20T06:38:06.715Z,15.56
2023-03-20T06:40:36.591Z,15.53
2023-03-20T06:43:04.781Z,15.54
2023-03-20T06:45:44.984Z,15.47
2023-03-20T06:48:22.115Z,15.45
2023-03-20T06:50:51.711Z,15.45
2023-03-20T06:53:21.849Z,15.44
2023-03-20T06:55:58.957Z,15.44
2023-03-20T06:58:27.077Z,15.41
2023-03-20T07:00:55.836Z,15.41
2023-03-20T07:03:23.624Z,15.42
2023-03-20T07:05:52.245Z,15.45
2023-03-20T07:08:22.709Z,15.46
2023-03-20T07:10:52.220Z,15.39
2023-03-20T07:13:20.741Z,15.44
2023-03-20T07:16:03.414Z,15.40
2023-03-20T07:18:37.524Z,15.36
2023-03-20T07:21:07.890Z,15.37
2023-03-20T07:23:40.210Z,15.38
2023-03-20T07:26:08.453Z,15.45
2023-03-20T07:28:36.631Z,15.47
2023-03-20T07:31:32.552Z,15.53
2023-03-20T07:34:14.273Z,15.56
2023-03-20T07:36:46.521Z,15.54
2023-03-20T07:39:18.814Z,15.54
2023-03-20T07:41:59.467Z,15.48
2023-03-20T07:44:42.499Z,15.50
2023-03-20T07:47:11.828Z,15.49
2023-03-20T07:49:41.364Z,15.51
2023-03-20T07:52:11.367Z,15.53
2023-03-20T07:54:39.156Z,15.56
2023-03-20T07:57:08.546Z,15.59
2023-03-20T07:59:38.488Z,15.61
2023-03-20T08:02:06.599Z,15.72
2023-03-20T08:04:34.562Z,15.68
2023-03-20T08:07:05.069Z,15.72
2023-03-20T08:09:33.262Z,15.67
2023-03-20T08:12:01.650Z,15.70
2023-03-20T08:14:29.449Z,15.71
2023-03-20T08:17:13.304Z,15.77
2023-03-20T08:19:43.730Z,15.86
2023-03-20T08:22:13.297Z,15.92
2023-03-20T08:24:41.264Z,16.00
2023-03-20T08:27:09.264Z,16.04
2023-03-20T08:29:37.832Z,16.06
2023-03-20T08:32:10.516Z,16.09
2023-03-20T08:34:38.257Z,16.11
2023-03-20T08:37:07.850Z,16.16
2023-03-20T08:39:37.805Z,16.21
2023-03-20T08:42:07.204Z,16.22
2023-03-20T08:44:34.913Z,16.31
2023-03-20T08:47:03.493Z,16.29
2023-03-20T08:49:34.263Z,16.31
2023-03-20T08:52:02.232Z,16.40
2023-03-20T08:54:30.641Z,16.49
2023-03-20T08:56:58.653Z,16.58
2023-03-20T08:59:28.170Z,16.72
2023-03-20T09:02:00.640Z,16.81
2023-03-20T09:04:28.511Z,16.86
2023-03-20T09:06:56.421Z,16.83
2023-03-20T09:09:30.120Z,16.94
2023-03-20T09:12:00.535Z,16.97
2023-03-20T09:14:29.236Z,16.98
2023-03-20T09:16:57.738Z,16.98
2023-03-20T09:19:25.561Z,17.10
2023-03-20T09:22:01.066Z,17.13
2023-03-20T09:24:29.280Z,17.11
2023-03-20T09:27:01.225Z,17.11
2023-03-20T09:29:31.270Z,17.07
2023-03-20T09:32:00.267Z,17.06
2023-03-20T09:34:35.167Z,17.09
2023-03-20T09:37:05.568Z,17.13
2023-03-20T09:39:36.385Z,17.07
2023-03-20T09:42:24.854Z,17.13
2023-03-20T09:45:15.763Z,17.05
2023-03-20T09:48:05.320Z,17.08
2023-03-20T09:50:45.325Z,16.95
2023-03-20T09:53:38.112Z,17.10
2023-03-20T09:56:15.775Z,17.01
2023-03-20T09:59:05.464Z,17.20
2023-03-20T10:02:34.835Z,17.22
2023-03-20T10:05:06.974Z,17.25
2023-03-20T10:07:35.170Z,17.28
2023-03-20T10:10:15.331Z,17.35
2023-03-20T10:13:26.875Z,17.32
2023-03-20T10:16:42.811Z,17.43
2023-03-20T10:19:35.335Z,17.49
2023-03-20T10:22:19.318Z,17.56
2023-03-20T10:24:59.448Z,17.52
2023-03-20T10:27:42.718Z,17.68
2023-03-20T10:31:03.319Z,17.70
2023-03-20T10:33:52.405Z,17.69
2023-03-20T10:36:58.935Z,17.72
2023-03-20T10:40:05.420Z,17.73
2023-03-20T10:42:43.947Z,17.70
2023-03-20T10:45:41.754Z,17.90
2023-03-20T10:48:51.313Z,17.85
2023-03-20T10:51:26.115Z,18.00
2023-03-20T10:54:02.816Z,17.94
2023-03-20T10:56:47.445Z,18.04
2023-03-20T10:59:38.878Z,17.95
2023-03-20T11:02:17.297Z,18.04
2023-03-20T11:04:50.903Z,17.98
2023-03-20T11:07:36.263Z,18.10
2023-03-20T11:10:05.941Z,18.15
2023-03-20T11:12:42.564Z,18.21
2023-03-20T11:15:25.055Z,18.26
2023-03-20T11:18:06.447Z,18.27
2023-03-20T11:20:48.189Z,18.41
2023-03-20T11:23:26.702Z,18.54
2023-03-20T11:26:02.651Z,18.64
2023-03-20T11:28:49.494Z,18.64
2023-03-20T11:31:43.084Z,18.66
2023-03-20T11:34:30.440Z,18.71
2023-03-20T11:37:10.198Z,18.85
2023-03-20T11:39:40.328Z,18.89
2023-03-20T11:42:26.218Z,18.95
2023-03-20T11:45:06.789Z,19.01
2023-03-20T11:47:36.227Z,18.99
2023-03-20T11:50:08.759Z,19.13
2023-03-20T11:52:41.285Z,19.21
2023-03-20T11:55:36.337Z,19.30
2023-03-20T11:58:10.089Z,19.34
2023-03-20T12:00:43.137Z,19.30
2023-03-20T12:03:55.890Z,19.38
2023-03-20T12:06:37.145Z,19.37
2023-03-20T12:09:55.032Z,19.25
2023-03-20T12:13:02.046Z,19.27
2023-03-20T12:15:38.536Z,19.22
2023-03-20T12:18:39.787Z,19.15
2023-03-20T12:21:21.109Z,19.08
2023-03-20T12:24:14.865Z,19.04
2023-03-20T12:26:57.901Z,18.99
2023-03-20T12:29:43.182Z,18.90
2023-03-20T12:32:26.713Z,18.95
2023-03-20T12:35:17.876Z,18.83
2023-03-20T12:37:48.579Z,18.93
2023-03-20T12:40:19.263Z,18.98
2023-03-20T12:43:29.582Z,19.05
2023-03-20T12:46:51.876Z,19.18
2023-03-20T12:49:47.875Z,19.33
2023-03-20T12:52:46.089Z,19.41
2023-03-20T12:55:44.147Z,19.45
2023-03-20T12:58:54.245Z,19.49
2023-03-20T13:01:40.491Z,19.38
2023-03-20T13:04:39.204Z,19.46
2023-03-20T13:07:21.970Z,19.38
2023-03-20T13:10:14.616Z,19.36
2023-03-20T13:13:05.665Z,19.29
2023-03-20T13:16:33.797Z,19.29
2023-03-20T13:19:26.326Z,19.35
2023-03-20T13:22:27.851Z,19.41
2023-03-20T13:25:19.464Z,19.47
2023-03-20T13:28:33.456Z,19.53
2023-03-20T13:31:35.014Z,19.56
2023-03-20T13:34:26.503Z,19.66
2023-03-20T13:37:36.698Z,19.67
2023-03-20T13:40:30.341Z,19.77
2023-03-20T13:43:20.404Z,19.64
2023-03-20T13:46:27.611Z,19.74
2023-03-20T13:49:12.279Z,19.86
2023-03-20T13:51:59.911Z,19.99
2023-03-20T13:55:17.483Z,20.05
2023-03-20T13:58:51.796Z,20.10
2023-03-20T14:01:36.202Z,20.09
2023-03-20T14:04:05.434Z,20.00
2023-03-20T14:07:00.635Z,20.03
2023-03-20T14:09:37.562Z,20.13
2023-03-20T14:12:14.616Z,20.10
2023-03-20T14:15:00.835Z,20.16
2023-03-20T14:17:32.349Z,20.13
2023-03-20T14:20:26.956Z,20.15
2023-03-20T14:23:32.934Z,20.10
2023-03-20T14:26:27.219Z,20.02
2023-03-20T14:29:15.324Z,20.06
2023-03-20T14:32:32.799Z,20.01
2023-03-20T14:35:36.442Z,20.02
2023-03-20T14:38:52.579Z,20.02
2023-03-20T14:42:01.192Z,20.02
2023-03-20T14:45:35.796Z,19.98
2023-03-20T14:48:46.635Z,19.94
2023-03-20T14:51:41.634Z,19.95
2023-03-20T14:54:31.124Z,19.93
2023-03-20T14:57:56.595Z,20.00
2023-03-20T15:01:10.622Z,19.98
2023-03-20T15:03:41.598Z,19.94
2023-03-20T15:06:13.282Z,19.95
2023-03-20T15:08:56.778Z,19.96
2023-03-20T15:11:27.399Z,19.93
2023-03-20T15:14:20.405Z,19.99
2023-03-20T15:17:39.790Z,19.97
2023-03-20T15:20:18.550Z,20.07
2023-03-20T15:22:58.399Z,20.09
2023-03-20T15:25:39.993Z,20.08
2023-03-20T15:28:12.600Z,20.10
2023-03-20T15:30:41.360Z,20.13
2023-03-20T15:33:39.523Z,20.14
2023-03-20T15:36:16.562Z,20.14
2023-03-20T15:38:51.917Z,20.13
2023-03-20T15:41:36.790Z,20.16
2023-03-20T15:44:36.845Z,20.13
2023-03-20T15:47:20.733Z,20.10
2023-03-20T15:49:57.262Z,20.14
2023-03-20T15:52:34.106Z,20.18
2023-03-20T15:55:10.887Z,20.18
2023-03-20T15:57:43.873Z,20.15
2023-03-20T16:00:23.982Z,20.15
2023-03-20T16:02:53.575Z,20.05
2023-03-20T16:05:27.720Z,20.00
2023-03-20T16:07:56.644Z,19.98
2023-03-20T16:10:36.278Z,19.96
2023-03-20T16:13:12.947Z,19.93
2023-03-20T16:15:42.772Z,19.89
2023-03-20T16:18:15.993Z,19.88
2023-03-20T16:20:54.930Z,19.86
2023-03-20T16:23:43.183Z,19.79
2023-03-20T16:26:24.607Z,19.76
2023-03-20T16:29:15.579Z,19.72
2023-03-20T16:32:51.070Z,19.66
2023-03-20T16:35:25.633Z,19.60
2023-03-20T16:38:34.162Z,19.54
2023-03-20T16:41:38.279Z,19.54
2023-03-20T16:44:23.087Z,19.45
2023-03-20T16:47:03.632Z,19.36
2023-03-20T16:49:55.650Z,19.22
2023-03-20T16:52:30.735Z,19.16
2023-03-20T16:55:12.851Z,19.10
2023-03-20T16:58:06.704Z,19.02
2023-03-20T17:00:57.787Z,19.00
2023-03-20T17:03:44.621Z,18.91
2023-03-20T17:06:22.280Z,18.85
2023-03-20T17:09:04.102Z,18.79
2023-03-20T17:11:40.992Z,18.71
2023-03-20T17:14:08.863Z,18.63
2023-03-20T17:16:38.285Z,18.61
2023-03-20T17:19:19.147Z,18.56
2023-03-20T17:21:47.972Z,18.51
2023-03-20T17:24:17.102Z,18.44
2023-03-20T17:26:58.356Z,18.40
2023-03-20T17:29:27.245Z,18.38
2023-03-20T17:31:54.978Z,18.37
2023-03-20T17:34:23.145Z,18.33
2023-03-20T17:36:50.952Z,18.27
2023-03-20T17:39:20.989Z,18.25
2023-03-20T17:41:51.358Z,18.23
2023-03-20T17:44:22.362Z,18.21
2023-03-20T17:46:58.309Z,18.19
2023-03-20T17:49:33.727Z,18.16
2023-03-20T17:52:01.787Z,18.18
2023-03-20T17:54:29.624Z,18.16
2023-03-20T17:57:01.845Z,18.09
2023-03-20T17:59:33.510Z,18.08
2023-03-20T18:02:03.034Z,18.07
2023-03-20T18:04:32.075Z,18.04
2023-03-20T18:07:02.244Z,18.02
2023-03-20T18:09:30.901Z,17.92
2023-03-20T18:11:59.669Z,17.92
2023-03-20T18:14:27.427Z,17.86
2023-03-20T18:16:58.951Z,17.88
2023-03-20T18:19:29.147Z,17.84
2023-03-20T18:21:58.685Z,17.85
2023-03-20T18:24:28.688Z,17.77
2023-03-20T18:26:59.348Z,17.75
2023-03-20T18:29:27.359Z,17.68
2023-03-20T18:31:55.820Z,17.62
2023-03-20T18:34:24.154Z,17.59
2023-03-20T18:36:52.429Z,17.52
2023-03-20T18:39:24.361Z,17.50
2023-03-20T18:41:55.185Z,17.43
2023-03-20T18:44:25.926Z,17.38
2023-03-20T18:46:54.879Z,17.33
2023-03-20T18:49:22.783Z,17.33
2023-03-20T18:51:52.810Z,17.32
2023-03-20T18:54:21.076Z,17.26
2023-03-20T18:56:51.979Z,17.22
2023-03-20T18:59:21.893Z,17.22
2023-03-20T19:01:51.676Z,17.23
2023-03-20T19:04:21.670Z,17.24
2023-03-20T19:06:50.270Z,17.24
2023-03-20T19:09:18.371Z,17.27
2023-03-20T19:11:47.030Z,17.28
2023-03-20T19:14:15.007Z,17.30
2023-03-20T19:16:42.879Z,17.29
2023-03-20T19:19:15.333Z,17.31
2023-03-20T19:21:43.566Z,17.25
2023-03-20T19:24:12.052Z,17.26
2023-03-20T19:26:42.642Z,17.23
2023-03-20T19:29:13.870Z,17.24
2023-03-20T19:31:41.935Z,17.21
2023-03-20T19:34:29.511Z,17.21
2023-03-20T19:36:59.658Z,17.17
2023-03-20T19:39:28.698Z,17.20
2023-03-20T19:42:15.261Z,17.23
2023-03-20T19:44:49.052Z,17.22
2023-03-20T19:47:17.004Z,17.24
2023-03-20T19:49:45.347Z,17.25
2023-03-20T19:52:28.685Z,17.27
2023-03-20T19:55:03.196Z,17.24
2023-03-20T19:57:32.299Z,17.25
2023-03-20T20:02:49.864Z,17.32
2023-03-20T20:05:37.096Z,17.38
2023-03-20T20:08:33.364Z,17.39
2023-03-20T20:10:56.471Z,17.38
2023-03-20T20:13:29.244Z,17.43
2023-03-20T20:15:57.991Z,17.45
2023-03-20T20:18:28.551Z,17.45
2023-03-20T20:22:02.443Z,17.44
2023-03-20T20:23:45.997Z,17.41
2023-03-20T20:26:14.311Z,17.43
2023-03-20T20:28:44.323Z,17.41
2023-03-20T20:31:12.185Z,17.41
2023-03-20T20:33:41.592Z,17.38
2023-03-20T20:36:57.541Z,17.38
2023-03-20T20:39:01.627Z,17.37
2023-03-20T20:41:29.854Z,17.37
2023-03-20T20:46:47.283Z,17.31
2023-03-20T20:49:19.743Z,17.36
2023-03-20T20:51:49.186Z,17.34
2023-03-20T20:54:18.046Z,17.33
2023-03-20T20:56:47.114Z,17.28
2023-03-20T20:59:15.422Z,17.31
2023-03-20T21:01:43.797Z,17.28
2023-03-20T21:04:12.004Z,17.30
2023-03-20T21:07:07.409Z,17.31
2023-03-20T21:09:31.430Z,17.29
2023-03-20T21:12:01.217Z,17.30
2023-03-20T21:14:30.388Z,17.30
2023-03-20T21:17:02.153Z,17.27
2023-03-20T21:19:38.898Z,17.30
2023-03-20T21:22:12.014Z,17.28
2023-03-20T21:24:45.904Z,17.27
2023-03-20T21:27:16.389Z,17.28
2023-03-20T21:29:47.521Z,17.29
2023-03-20T21:32:17.662Z,17.12
2023-03-20T21:34:45.928Z,17.20
2023-03-20T21:38:33.356Z,17.28
2023-03-20T21:40:08.783Z,17.25
2023-03-20T21:42:36.896Z,17.25
2023-03-20T21:46:13.498Z,17.24
2023-03-20T21:48:33.449Z,17.20
2023-03-20T21:54:36.101Z,17.14
2023-03-20T21:56:59.928Z,17.14
2023-03-20T21:59:48.537Z,17.15
2023-03-20T22:02:10.592Z,17.15
2023-03-20T22:05:24.606Z,17.12
2023-03-20T22:11:10.741Z,17.15
2023-03-20T22:16:41.124Z,17.11
2023-03-20T22:19:40.102Z,17.09
2023-03-20T22:22:12.054Z,17.08
2023-03-20T22:30:43.472Z,17.02
2023-03-20T22:36:38.652Z,17.04
2023-03-20T22:39:34.100Z,17.06
2023-03-20T22:42:22.269Z,17.05
2023-03-20T22:47:11.265Z,17.03
2023-03-20T22:49:39.822Z,17.06
2023-03-20T22:52:24.292Z,17.06
2023-03-20T22:54:52.840Z,17.03
2023-03-20T22:57:26.553Z,17.02
2023-03-20T23:00:02.951Z,16.96
2023-03-20T23:02:30.792Z,16.98
2023-03-20T23:04:58.834Z,16.98
2023-03-20T23:07:30.088Z,16.96
2023-03-20T23:09:58.262Z,16.95
2023-03-20T23:12:26.538Z,16.95
2023-03-20T23:14:56.432Z,16.97
2023-03-20T23:17:26.943Z,16.93
2023-03-20T23:20:08.695Z,16.91
2023-03-20T23:22:39.281Z,16.87
2023-03-20T23:25:18.688Z,16.86
2023-03-20T23:27:51.981Z,16.81
2023-03-20T23:30:20.768Z,16.77
2023-03-20T23:32:49.665Z,16.77
2023-03-20T23:35:18.135Z,16.76
2023-03-20T23:37:45.909Z,16.75
2023-03-20T23:40:14.588Z,16.70
2023-03-20T23:42:42.356Z,16.72
2023-03-20T23:45:20.076Z,16.68
2023-03-20T23:47:52.696Z,16.65
2023-03-20T23:50:42.662Z,16.65
2023-03-20T23:53:19.921Z,16.61
2023-03-20T23:55:53.077Z,16.58
2023-03-20T23:58:26.769Z,16.53
